Search for airport 
image banner adimage banner adimage banner ad
image banner ad

PS56 - Morris

Located in Gettysburg, United States

ICAO - PS56, IATA -

Data provided by Airmate  

General information

Coordinates: N39°46'45" W77°15'5"
Elevation is 500 feet MSL.
Magnetic variation is -10° East
View others Airports in Pennsylvania

Operational data

Special qualification required
Current time UTC:
Current local time:
METAR: KDMW 190035Z AUTO 00000KT 10SM CLR 22/09 A3030 RMK AO2
View NOTAMs / SUP AIP / TFR affecting this airport [VIEW]
Communications frequencies: [VIEW]

Runways:

Airport contact information

Address: Gettysburg United States

Satellite view of PS56